Atbasar, Kazakhstan
Current Conditions -  °F | °C
As of 7:30 PM on Saturday 25 Oct 2014 (Local Time) from UACK Reporting Station
Broken Clouds Broken Clouds  
Wind Chill: -17°   Ceiling: 2300
Heat Index: -10°   Visibility: 6mi
Dew Point: -14°   Wind: 11mph
Humidity: 73%   Direction: 270°W
Pressure: 29.91"   Gusts: NA
Location:  51.82°N, 68.35°E
Report Text: UACK 251330Z 27005MPS 9999 BKN023CB M10/M14 Q1013 R20/450260NOSIG RMK QFE736/0981
Loading
Personal Weather Stations






























Interactive Weather Map
Tropical Storm Tracking
New forecast layout! Learn more

10-Day Weather Forecast

Advertisements
Track Severe Weather on mobile